sensor_id;sensor_type;location;lat;lon;timestamp;P1;durP1;ratioP1;P2;durP2;ratioP2
12418;SDS011;6273;52.312;9.178;2022-07-24T00:02:06;3.80;;;2.60;;
12418;SDS011;6273;52.312;9.178;2022-07-24T00:04:32;3.73;;;2.40;;
12418;SDS011;6273;52.312;9.178;2022-07-24T00:06:57;3.90;;;2.93;;
12418;SDS011;6273;52.312;9.178;2022-07-24T00:09:23;2.77;;;2.50;;
12418;SDS011;6273;52.312;9.178;2022-07-24T00:11:49;2.77;;;2.57;;
12418;SDS011;6273;52.312;9.178;2022-07-24T00:14:14;2.50;;;2.40;;
12418;SDS011;6273;52.312;9.178;2022-07-24T00:16:40;2.70;;;2.50;;
12418;SDS011;6273;52.312;9.178;2022-07-24T00:19:06;2.70;;;2.50;;
12418;SDS011;6273;52.312;9.178;2022-07-24T00:21:31;3.70;;;2.77;;
12418;SDS011;6273;52.312;9.178;2022-07-24T00:23:57;2.83;;;2.63;;
12418;SDS011;6273;52.312;9.178;2022-07-24T00:26:23;3.20;;;2.80;;
12418;SDS011;6273;52.312;9.178;2022-07-24T00:28:49;3.93;;;3.10;;
12418;SDS011;6273;52.312;9.178;2022-07-24T00:31:15;3.47;;;2.50;;
12418;SDS011;6273;52.312;9.178;2022-07-24T00:33:41;3.77;;;2.80;;
12418;SDS011;6273;52.312;9.178;2022-07-24T00:36:06;9.80;;;2.67;;
12418;SDS011;6273;52.312;9.178;2022-07-24T00:38:32;2.77;;;2.57;;
12418;SDS011;6273;52.312;9.178;2022-07-24T00:40:59;2.63;;;2.43;;
12418;SDS011;6273;52.312;9.178;2022-07-24T00:43:24;3.17;;;2.70;;
12418;SDS011;6273;52.312;9.178;2022-07-24T00:45:50;10.10;;;3.50;;
12418;SDS011;6273;52.312;9.178;2022-07-24T00:48:15;3.70;;;3.40;;
12418;SDS011;6273;52.312;9.178;2022-07-24T00:50:41;5.03;;;3.70;;
12418;SDS011;6273;52.312;9.178;2022-07-24T00:53:08;3.30;;;3.00;;
12418;SDS011;6273;52.312;9.178;2022-07-24T00:55:34;4.17;;;3.17;;
12418;SDS011;6273;52.312;9.178;2022-07-24T00:58:00;2.20;;;2.10;;
12418;SDS011;6273;52.312;9.178;2022-07-24T01:00:26;3.30;;;3.10;;
12418;SDS011;6273;52.312;9.178;2022-07-24T01:02:52;3.10;;;2.90;;
12418;SDS011;6273;52.312;9.178;2022-07-24T01:05:18;3.30;;;2.80;;
12418;SDS011;6273;52.312;9.178;2022-07-24T01:07:44;3.03;;;2.83;;
12418;SDS011;6273;52.312;9.178;2022-07-24T01:10:10;4.03;;;2.47;;
12418;SDS011;6273;52.312;9.178;2022-07-24T01:12:37;2.80;;;2.60;;
12418;SDS011;6273;52.312;9.178;2022-07-24T01:15:05;3.30;;;3.10;;
12418;SDS011;6273;52.312;9.178;2022-07-24T01:17:34;4.50;;;2.83;;
12418;SDS011;6273;52.312;9.178;2022-07-24T01:20:02;2.90;;;2.70;;
12418;SDS011;6273;52.312;9.178;2022-07-24T01:22:29;3.40;;;2.90;;
12418;SDS011;6273;52.312;9.178;2022-07-24T01:24:55;2.57;;;2.47;;
12418;SDS011;6273;52.312;9.178;2022-07-24T01:27:21;3.53;;;3.23;;
12418;SDS011;6273;52.312;9.178;2022-07-24T01:29:48;3.20;;;2.60;;
12418;SDS011;6273;52.312;9.178;2022-07-24T01:32:14;2.90;;;2.70;;
12418;SDS011;6273;52.312;9.178;2022-07-24T01:34:40;5.50;;;3.17;;
12418;SDS011;6273;52.312;9.178;2022-07-24T01:37:06;3.03;;;2.83;;
12418;SDS011;6273;52.312;9.178;2022-07-24T01:39:32;3.10;;;2.80;;
12418;SDS011;6273;52.312;9.178;2022-07-24T01:41:58;2.90;;;2.77;;
12418;SDS011;6273;52.312;9.178;2022-07-24T01:44:23;2.87;;;2.67;;
12418;SDS011;6273;52.312;9.178;2022-07-24T01:46:49;3.30;;;3.00;;
12418;SDS011;6273;52.312;9.178;2022-07-24T01:49:15;3.60;;;3.33;;
12418;SDS011;6273;52.312;9.178;2022-07-24T01:51:40;2.97;;;2.77;;
12418;SDS011;6273;52.312;9.178;2022-07-24T01:54:06;3.13;;;2.93;;
12418;SDS011;6273;52.312;9.178;2022-07-24T01:56:32;3.10;;;2.80;;
12418;SDS011;6273;52.312;9.178;2022-07-24T01:58:57;5.60;;;2.97;;
12418;SDS011;6273;52.312;9.178;2022-07-24T02:01:24;9.43;;;2.97;;
12418;SDS011;6273;52.312;9.178;2022-07-24T02:03:50;2.77;;;2.57;;
12418;SDS011;6273;52.312;9.178;2022-07-24T02:06:15;3.07;;;2.83;;
12418;SDS011;6273;52.312;9.178;2022-07-24T02:08:41;3.10;;;2.80;;
12418;SDS011;6273;52.312;9.178;2022-07-24T02:11:07;6.63;;;2.97;;
12418;SDS011;6273;52.312;9.178;2022-07-24T02:13:33;3.40;;;3.20;;
12418;SDS011;6273;52.312;9.178;2022-07-24T02:15:58;2.70;;;2.50;;
12418;SDS011;6273;52.312;9.178;2022-07-24T02:18:24;2.43;;;2.23;;
12418;SDS011;6273;52.312;9.178;2022-07-24T02:20:50;4.30;;;2.33;;
12418;SDS011;6273;52.312;9.178;2022-07-24T02:23:15;3.07;;;2.77;;
12418;SDS011;6273;52.312;9.178;2022-07-24T02:25:48;2.90;;;2.70;;
12418;SDS011;6273;52.312;9.178;2022-07-24T02:28:14;3.13;;;2.93;;
12418;SDS011;6273;52.312;9.178;2022-07-24T02:30:41;3.00;;;2.77;;
12418;SDS011;6273;52.312;9.178;2022-07-24T02:33:07;2.73;;;2.53;;
12418;SDS011;6273;52.312;9.178;2022-07-24T02:35:35;3.03;;;2.83;;
12418;SDS011;6273;52.312;9.178;2022-07-24T02:38:01;3.00;;;2.80;;
12418;SDS011;6273;52.312;9.178;2022-07-24T02:40:27;2.67;;;2.50;;
12418;SDS011;6273;52.312;9.178;2022-07-24T02:42:52;3.33;;;2.87;;
12418;SDS011;6273;52.312;9.178;2022-07-24T02:45:18;3.43;;;3.13;;
12418;SDS011;6273;52.312;9.178;2022-07-24T02:47:48;3.77;;;3.00;;
12418;SDS011;6273;52.312;9.178;2022-07-24T02:50:15;3.43;;;2.83;;
12418;SDS011;6273;52.312;9.178;2022-07-24T02:52:42;3.73;;;3.50;;
12418;SDS011;6273;52.312;9.178;2022-07-24T02:55:08;2.73;;;2.50;;
12418;SDS011;6273;52.312;9.178;2022-07-24T02:57:34;2.63;;;2.53;;
12418;SDS011;6273;52.312;9.178;2022-07-24T03:00:02;3.93;;;3.37;;
12418;SDS011;6273;52.312;9.178;2022-07-24T03:02:29;4.03;;;3.70;;
12418;SDS011;6273;52.312;9.178;2022-07-24T03:04:55;3.33;;;3.13;;
12418;SDS011;6273;52.312;9.178;2022-07-24T03:07:21;3.50;;;3.23;;
12418;SDS011;6273;52.312;9.178;2022-07-24T03:09:47;2.97;;;2.60;;
12418;SDS011;6273;52.312;9.178;2022-07-24T03:12:12;3.00;;;2.80;;
12418;SDS011;6273;52.312;9.178;2022-07-24T03:14:38;4.20;;;3.90;;
12418;SDS011;6273;52.312;9.178;2022-07-24T03:17:04;2.90;;;2.70;;
12418;SDS011;6273;52.312;9.178;2022-07-24T03:19:30;3.97;;;3.20;;
12418;SDS011;6273;52.312;9.178;2022-07-24T03:21:55;3.03;;;2.90;;
12418;SDS011;6273;52.312;9.178;2022-07-24T03:24:21;3.30;;;3.10;;
12418;SDS011;6273;52.312;9.178;2022-07-24T03:26:46;3.70;;;3.40;;
12418;SDS011;6273;52.312;9.178;2022-07-24T03:29:12;3.90;;;3.60;;
12418;SDS011;6273;52.312;9.178;2022-07-24T03:31:38;4.00;;;3.67;;
12418;SDS011;6273;52.312;9.178;2022-07-24T03:34:03;3.70;;;3.50;;
12418;SDS011;6273;52.312;9.178;2022-07-24T03:36:29;3.47;;;3.17;;
12418;SDS011;6273;52.312;9.178;2022-07-24T03:38:55;4.60;;;3.37;;
12418;SDS011;6273;52.312;9.178;2022-07-24T03:41:20;3.60;;;3.40;;
12418;SDS011;6273;52.312;9.178;2022-07-24T03:43:46;3.10;;;2.90;;
12418;SDS011;6273;52.312;9.178;2022-07-24T03:46:11;2.70;;;2.50;;
12418;SDS011;6273;52.312;9.178;2022-07-24T03:48:37;3.40;;;2.80;;
12418;SDS011;6273;52.312;9.178;2022-07-24T03:51:02;3.20;;;2.40;;
12418;SDS011;6273;52.312;9.178;2022-07-24T03:53:28;3.07;;;2.53;;
12418;SDS011;6273;52.312;9.178;2022-07-24T03:55:54;6.43;;;3.50;;
12418;SDS011;6273;52.312;9.178;2022-07-24T03:58:19;4.37;;;2.50;;
12418;SDS011;6273;52.312;9.178;2022-07-24T04:00:45;3.20;;;3.00;;
12418;SDS011;6273;52.312;9.178;2022-07-24T04:03:10;3.47;;;3.20;;
12418;SDS011;6273;52.312;9.178;2022-07-24T04:05:36;2.50;;;2.30;;
12418;SDS011;6273;52.312;9.178;2022-07-24T04:08:02;2.97;;;2.77;;
12418;SDS011;6273;52.312;9.178;2022-07-24T04:10:27;2.23;;;2.13;;
12418;SDS011;6273;52.312;9.178;2022-07-24T04:12:53;2.83;;;2.63;;
12418;SDS011;6273;52.312;9.178;2022-07-24T04:15:19;2.60;;;2.10;;
12418;SDS011;6273;52.312;9.178;2022-07-24T04:17:44;3.20;;;2.70;;
12418;SDS011;6273;52.312;9.178;2022-07-24T04:20:10;3.10;;;2.90;;
12418;SDS011;6273;52.312;9.178;2022-07-24T04:22:37;3.50;;;3.07;;
12418;SDS011;6273;52.312;9.178;2022-07-24T04:25:02;3.20;;;2.90;;
12418;SDS011;6273;52.312;9.178;2022-07-24T04:27:28;2.93;;;2.73;;
12418;SDS011;6273;52.312;9.178;2022-07-24T04:29:54;2.80;;;2.70;;
12418;SDS011;6273;52.312;9.178;2022-07-24T04:32:20;2.63;;;2.53;;
12418;SDS011;6273;52.312;9.178;2022-07-24T04:34:45;4.03;;;3.33;;
12418;SDS011;6273;52.312;9.178;2022-07-24T04:37:11;12.23;;;2.87;;
12418;SDS011;6273;52.312;9.178;2022-07-24T04:39:36;2.67;;;2.23;;
12418;SDS011;6273;52.312;9.178;2022-07-24T04:42:02;2.73;;;2.53;;
12418;SDS011;6273;52.312;9.178;2022-07-24T04:44:28;2.60;;;2.40;;
12418;SDS011;6273;52.312;9.178;2022-07-24T04:46:53;2.20;;;2.00;;
12418;SDS011;6273;52.312;9.178;2022-07-24T04:49:19;1.73;;;1.63;;
12418;SDS011;6273;52.312;9.178;2022-07-24T04:51:45;2.70;;;2.60;;
12418;SDS011;6273;52.312;9.178;2022-07-24T04:54:10;3.17;;;2.50;;
12418;SDS011;6273;52.312;9.178;2022-07-24T04:56:36;2.77;;;2.57;;
12418;SDS011;6273;52.312;9.178;2022-07-24T04:59:01;2.40;;;2.23;;
12418;SDS011;6273;52.312;9.178;2022-07-24T05:01:27;2.00;;;1.77;;
12418;SDS011;6273;52.312;9.178;2022-07-24T05:03:53;1.53;;;1.43;;
12418;SDS011;6273;52.312;9.178;2022-07-24T05:06:21;5.10;;;1.60;;
12418;SDS011;6273;52.312;9.178;2022-07-24T05:08:47;2.70;;;1.30;;
12418;SDS011;6273;52.312;9.178;2022-07-24T05:11:13;2.30;;;2.20;;
12418;SDS011;6273;52.312;9.178;2022-07-24T05:13:39;3.53;;;2.10;;
12418;SDS011;6273;52.312;9.178;2022-07-24T05:16:05;2.10;;;1.53;;
12418;SDS011;6273;52.312;9.178;2022-07-24T05:18:30;3.03;;;1.80;;
12418;SDS011;6273;52.312;9.178;2022-07-24T05:20:56;4.30;;;1.70;;
12418;SDS011;6273;52.312;9.178;2022-07-24T05:23:21;1.43;;;1.33;;
12418;SDS011;6273;52.312;9.178;2022-07-24T05:25:47;2.80;;;2.13;;
12418;SDS011;6273;52.312;9.178;2022-07-24T05:28:13;5.13;;;1.60;;
12418;SDS011;6273;52.312;9.178;2022-07-24T05:30:38;4.33;;;1.63;;
12418;SDS011;6273;52.312;9.178;2022-07-24T05:33:04;1.27;;;1.17;;
12418;SDS011;6273;52.312;9.178;2022-07-24T05:35:29;9.70;;;1.63;;
12418;SDS011;6273;52.312;9.178;2022-07-24T05:37:55;2.33;;;1.90;;
12418;SDS011;6273;52.312;9.178;2022-07-24T05:40:21;2.60;;;1.27;;
12418;SDS011;6273;52.312;9.178;2022-07-24T05:42:47;1.40;;;1.30;;
12418;SDS011;6273;52.312;9.178;2022-07-24T05:45:12;1.40;;;1.30;;
12418;SDS011;6273;52.312;9.178;2022-07-24T05:47:38;7.47;;;1.93;;
12418;SDS011;6273;52.312;9.178;2022-07-24T05:50:06;2.20;;;1.53;;
12418;SDS011;6273;52.312;9.178;2022-07-24T05:52:35;1.93;;;1.23;;
12418;SDS011;6273;52.312;9.178;2022-07-24T05:55:01;1.20;;;1.10;;
12418;SDS011;6273;52.312;9.178;2022-07-24T05:57:27;1.60;;;1.20;;
12418;SDS011;6273;52.312;9.178;2022-07-24T05:59:53;2.90;;;0.97;;
12418;SDS011;6273;52.312;9.178;2022-07-24T06:02:18;1.00;;;1.00;;
12418;SDS011;6273;52.312;9.178;2022-07-24T06:04:44;1.30;;;1.20;;
12418;SDS011;6273;52.312;9.178;2022-07-24T06:07:10;2.70;;;1.03;;
12418;SDS011;6273;52.312;9.178;2022-07-24T06:09:36;1.63;;;1.10;;
12418;SDS011;6273;52.312;9.178;2022-07-24T06:12:02;5.57;;;1.47;;
12418;SDS011;6273;52.312;9.178;2022-07-24T06:14:29;2.40;;;1.53;;
12418;SDS011;6273;52.312;9.178;2022-07-24T06:16:56;5.03;;;1.10;;
12418;SDS011;6273;52.312;9.178;2022-07-24T06:19:21;0.90;;;0.90;;
12418;SDS011;6273;52.312;9.178;2022-07-24T06:21:47;2.27;;;1.20;;
12418;SDS011;6273;52.312;9.178;2022-07-24T06:24:12;1.20;;;1.10;;
12418;SDS011;6273;52.312;9.178;2022-07-24T06:26:39;1.30;;;1.20;;
12418;SDS011;6273;52.312;9.178;2022-07-24T06:29:05;1.77;;;1.43;;
12418;SDS011;6273;52.312;9.178;2022-07-24T06:31:30;1.87;;;1.67;;
12418;SDS011;6273;52.312;9.178;2022-07-24T06:33:56;1.53;;;1.13;;
12418;SDS011;6273;52.312;9.178;2022-07-24T06:36:21;1.50;;;1.40;;
12418;SDS011;6273;52.312;9.178;2022-07-24T06:38:47;1.70;;;1.60;;
12418;SDS011;6273;52.312;9.178;2022-07-24T06:41:13;2.13;;;1.40;;
12418;SDS011;6273;52.312;9.178;2022-07-24T06:43:39;1.67;;;1.57;;
12418;SDS011;6273;52.312;9.178;2022-07-24T06:46:05;4.10;;;1.47;;
12418;SDS011;6273;52.312;9.178;2022-07-24T06:48:31;1.67;;;1.33;;
12418;SDS011;6273;52.312;9.178;2022-07-24T06:50:57;2.60;;;2.50;;
12418;SDS011;6273;52.312;9.178;2022-07-24T06:53:23;1.30;;;1.20;;
12418;SDS011;6273;52.312;9.178;2022-07-24T06:55:49;2.43;;;2.00;;
12418;SDS011;6273;52.312;9.178;2022-07-24T06:58:18;1.87;;;0.90;;
12418;SDS011;6273;52.312;9.178;2022-07-24T07:00:44;1.40;;;1.30;;
12418;SDS011;6273;52.312;9.178;2022-07-24T07:03:10;2.17;;;1.77;;
12418;SDS011;6273;52.312;9.178;2022-07-24T07:05:36;3.23;;;3.03;;
12418;SDS011;6273;52.312;9.178;2022-07-24T07:08:01;2.27;;;1.20;;
12418;SDS011;6273;52.312;9.178;2022-07-24T07:10:27;2.17;;;1.60;;
12418;SDS011;6273;52.312;9.178;2022-07-24T07:12:53;4.23;;;1.70;;
12418;SDS011;6273;52.312;9.178;2022-07-24T07:15:18;1.97;;;1.87;;
12418;SDS011;6273;52.312;9.178;2022-07-24T07:17:44;2.30;;;2.10;;
12418;SDS011;6273;52.312;9.178;2022-07-24T07:20:10;3.30;;;2.10;;
12418;SDS011;6273;52.312;9.178;2022-07-24T07:22:36;1.80;;;1.70;;
12418;SDS011;6273;52.312;9.178;2022-07-24T07:25:03;2.70;;;2.07;;
12418;SDS011;6273;52.312;9.178;2022-07-24T07:27:29;2.13;;;2.03;;
12418;SDS011;6273;52.312;9.178;2022-07-24T07:29:54;2.47;;;2.27;;
12418;SDS011;6273;52.312;9.178;2022-07-24T07:32:20;2.27;;;1.90;;
12418;SDS011;6273;52.312;9.178;2022-07-24T07:34:46;7.37;;;2.20;;
12418;SDS011;6273;52.312;9.178;2022-07-24T07:37:11;2.00;;;1.80;;
12418;SDS011;6273;52.312;9.178;2022-07-24T07:39:37;2.07;;;1.97;;
12418;SDS011;6273;52.312;9.178;2022-07-24T07:42:02;2.03;;;1.80;;
12418;SDS011;6273;52.312;9.178;2022-07-24T07:44:28;2.57;;;2.37;;
12418;SDS011;6273;52.312;9.178;2022-07-24T07:46:54;2.60;;;2.50;;
12418;SDS011;6273;52.312;9.178;2022-07-24T07:49:19;2.23;;;2.07;;
12418;SDS011;6273;52.312;9.178;2022-07-24T07:51:45;3.47;;;3.27;;
12418;SDS011;6273;52.312;9.178;2022-07-24T07:54:13;3.23;;;3.03;;
12418;SDS011;6273;52.312;9.178;2022-07-24T07:56:39;3.23;;;3.00;;
12418;SDS011;6273;52.312;9.178;2022-07-24T07:59:05;5.30;;;4.03;;
12418;SDS011;6273;52.312;9.178;2022-07-24T08:01:31;2.80;;;2.30;;
12418;SDS011;6273;52.312;9.178;2022-07-24T08:03:57;3.73;;;2.80;;
12418;SDS011;6273;52.312;9.178;2022-07-24T08:06:23;5.73;;;3.13;;
12418;SDS011;6273;52.312;9.178;2022-07-24T08:08:48;4.23;;;2.60;;
12418;SDS011;6273;52.312;9.178;2022-07-24T08:11:14;3.63;;;3.40;;
12418;SDS011;6273;52.312;9.178;2022-07-24T08:13:40;3.40;;;3.07;;
12418;SDS011;6273;52.312;9.178;2022-07-24T08:16:05;3.53;;;2.63;;
12418;SDS011;6273;52.312;9.178;2022-07-24T08:18:31;5.50;;;2.50;;
12418;SDS011;6273;52.312;9.178;2022-07-24T08:20:57;3.00;;;2.80;;
12418;SDS011;6273;52.312;9.178;2022-07-24T08:23:22;2.83;;;2.63;;
12418;SDS011;6273;52.312;9.178;2022-07-24T08:25:48;2.70;;;2.60;;
12418;SDS011;6273;52.312;9.178;2022-07-24T08:28:14;5.00;;;1.97;;
12418;SDS011;6273;52.312;9.178;2022-07-24T08:30:39;4.00;;;2.60;;
12418;SDS011;6273;52.312;9.178;2022-07-24T08:33:05;4.77;;;2.37;;
12418;SDS011;6273;52.312;9.178;2022-07-24T08:35:31;2.37;;;2.20;;
12418;SDS011;6273;52.312;9.178;2022-07-24T08:37:56;4.27;;;2.50;;
12418;SDS011;6273;52.312;9.178;2022-07-24T08:40:22;2.73;;;2.53;;
12418;SDS011;6273;52.312;9.178;2022-07-24T08:42:48;4.43;;;2.60;;
12418;SDS011;6273;52.312;9.178;2022-07-24T08:45:14;2.93;;;2.67;;
12418;SDS011;6273;52.312;9.178;2022-07-24T08:47:41;2.30;;;2.20;;
12418;SDS011;6273;52.312;9.178;2022-07-24T08:50:06;3.00;;;2.30;;
12418;SDS011;6273;52.312;9.178;2022-07-24T08:52:33;2.73;;;2.53;;
12418;SDS011;6273;52.312;9.178;2022-07-24T08:55:01;3.33;;;3.00;;
12418;SDS011;6273;52.312;9.178;2022-07-24T08:57:27;3.13;;;2.90;;
12418;SDS011;6273;52.312;9.178;2022-07-24T08:59:52;4.13;;;3.20;;
12418;SDS011;6273;52.312;9.178;2022-07-24T09:02:18;5.47;;;3.93;;
12418;SDS011;6273;52.312;9.178;2022-07-24T09:04:45;4.50;;;3.77;;
12418;SDS011;6273;52.312;9.178;2022-07-24T09:07:19;4.80;;;4.40;;
12418;SDS011;6273;52.312;9.178;2022-07-24T09:10:06;4.17;;;3.77;;
12418;SDS011;6273;52.312;9.178;2022-07-24T09:12:37;3.80;;;3.50;;
12418;SDS011;6273;52.312;9.178;2022-07-24T09:15:16;3.80;;;3.23;;
12418;SDS011;6273;52.312;9.178;2022-07-24T09:17:49;5.00;;;3.50;;
12418;SDS011;6273;52.312;9.178;2022-07-24T09:20:20;4.37;;;4.07;;
12418;SDS011;6273;52.312;9.178;2022-07-24T09:22:46;3.77;;;3.47;;
12418;SDS011;6273;52.312;9.178;2022-07-24T09:27:56;4.50;;;4.20;;
12418;SDS011;6273;52.312;9.178;2022-07-24T09:30:33;4.30;;;3.47;;
12418;SDS011;6273;52.312;9.178;2022-07-24T09:33:06;3.43;;;3.20;;
12418;SDS011;6273;52.312;9.178;2022-07-24T09:35:34;3.70;;;3.40;;
12418;SDS011;6273;52.312;9.178;2022-07-24T09:38:02;3.70;;;3.40;;
12418;SDS011;6273;52.312;9.178;2022-07-24T09:40:33;4.13;;;3.83;;
12418;SDS011;6273;52.312;9.178;2022-07-24T09:43:22;4.17;;;3.83;;
12418;SDS011;6273;52.312;9.178;2022-07-24T09:45:53;4.60;;;4.40;;
12418;SDS011;6273;52.312;9.178;2022-07-24T09:50:55;4.40;;;3.97;;
12418;SDS011;6273;52.312;9.178;2022-07-24T09:53:34;4.50;;;4.20;;
12418;SDS011;6273;52.312;9.178;2022-07-24T09:56:05;4.73;;;3.67;;
12418;SDS011;6273;52.312;9.178;2022-07-24T09:58:34;4.27;;;3.97;;
12418;SDS011;6273;52.312;9.178;2022-07-24T10:01:03;4.70;;;4.40;;
12418;SDS011;6273;52.312;9.178;2022-07-24T10:03:32;4.47;;;3.83;;
12418;SDS011;6273;52.312;9.178;2022-07-24T10:06:00;4.50;;;4.10;;
12418;SDS011;6273;52.312;9.178;2022-07-24T10:08:29;6.13;;;3.90;;
12418;SDS011;6273;52.312;9.178;2022-07-24T10:10:56;4.87;;;3.93;;
12418;SDS011;6273;52.312;9.178;2022-07-24T10:13:23;4.50;;;4.20;;
12418;SDS011;6273;52.312;9.178;2022-07-24T10:18:46;4.20;;;4.00;;
12418;SDS011;6273;52.312;9.178;2022-07-24T10:21:20;4.40;;;4.10;;
12418;SDS011;6273;52.312;9.178;2022-07-24T10:26:34;5.17;;;4.40;;
12418;SDS011;6273;52.312;9.178;2022-07-24T10:29:06;4.80;;;4.40;;
12418;SDS011;6273;52.312;9.178;2022-07-24T10:31:39;4.30;;;4.00;;
12418;SDS011;6273;52.312;9.178;2022-07-24T10:36:51;4.87;;;4.57;;
12418;SDS011;6273;52.312;9.178;2022-07-24T10:39:29;4.13;;;3.83;;
12418;SDS011;6273;52.312;9.178;2022-07-24T10:42:19;4.27;;;3.90;;
12418;SDS011;6273;52.312;9.178;2022-07-24T10:45:03;4.37;;;4.07;;
12418;SDS011;6273;52.312;9.178;2022-07-24T10:47:40;3.93;;;3.73;;
12418;SDS011;6273;52.312;9.178;2022-07-24T10:50:06;4.77;;;4.33;;
12418;SDS011;6273;52.312;9.178;2022-07-24T10:52:32;3.83;;;3.57;;
12418;SDS011;6273;52.312;9.178;2022-07-24T10:58:02;4.53;;;4.17;;
12418;SDS011;6273;52.312;9.178;2022-07-24T11:00:38;4.70;;;4.40;;
12418;SDS011;6273;52.312;9.178;2022-07-24T11:06:07;4.67;;;4.30;;
12418;SDS011;6273;52.312;9.178;2022-07-24T11:11:05;5.37;;;4.87;;
12418;SDS011;6273;52.312;9.178;2022-07-24T11:13:39;5.90;;;5.30;;
12418;SDS011;6273;52.312;9.178;2022-07-24T11:18:36;4.83;;;4.43;;
12418;SDS011;6273;52.312;9.178;2022-07-24T11:21:03;4.73;;;4.30;;
12418;SDS011;6273;52.312;9.178;2022-07-24T11:23:29;5.10;;;4.60;;
12418;SDS011;6273;52.312;9.178;2022-07-24T11:29:11;6.70;;;5.00;;
12418;SDS011;6273;52.312;9.178;2022-07-24T11:31:37;6.53;;;4.87;;
12418;SDS011;6273;52.312;9.178;2022-07-24T11:34:04;8.30;;;3.70;;
12418;SDS011;6273;52.312;9.178;2022-07-24T11:36:29;4.70;;;4.40;;
12418;SDS011;6273;52.312;9.178;2022-07-24T11:38:56;5.33;;;4.93;;
12418;SDS011;6273;52.312;9.178;2022-07-24T11:41:23;4.97;;;4.53;;
12418;SDS011;6273;52.312;9.178;2022-07-24T11:43:50;4.57;;;4.27;;
12418;SDS011;6273;52.312;9.178;2022-07-24T11:46:31;4.80;;;4.60;;
12418;SDS011;6273;52.312;9.178;2022-07-24T11:49:02;4.50;;;4.23;;
12418;SDS011;6273;52.312;9.178;2022-07-24T11:51:28;4.50;;;4.07;;
12418;SDS011;6273;52.312;9.178;2022-07-24T11:53:55;4.97;;;4.57;;
12418;SDS011;6273;52.312;9.178;2022-07-24T11:56:21;4.53;;;4.23;;
12418;SDS011;6273;52.312;9.178;2022-07-24T11:58:47;5.90;;;4.10;;
12418;SDS011;6273;52.312;9.178;2022-07-24T12:01:20;5.00;;;4.60;;
12418;SDS011;6273;52.312;9.178;2022-07-24T12:03:50;4.47;;;4.17;;
12418;SDS011;6273;52.312;9.178;2022-07-24T12:06:21;4.30;;;4.00;;
12418;SDS011;6273;52.312;9.178;2022-07-24T12:08:47;6.03;;;4.50;;
12418;SDS011;6273;52.312;9.178;2022-07-24T12:11:19;5.60;;;5.20;;
12418;SDS011;6273;52.312;9.178;2022-07-24T12:13:49;4.73;;;4.37;;
12418;SDS011;6273;52.312;9.178;2022-07-24T12:16:24;4.60;;;4.30;;
12418;SDS011;6273;52.312;9.178;2022-07-24T12:18:51;4.33;;;4.03;;
12418;SDS011;6273;52.312;9.178;2022-07-24T12:21:16;4.63;;;4.30;;
12418;SDS011;6273;52.312;9.178;2022-07-24T12:23:45;5.13;;;4.73;;
12418;SDS011;6273;52.312;9.178;2022-07-24T12:26:13;5.43;;;4.33;;
12418;SDS011;6273;52.312;9.178;2022-07-24T12:28:38;4.17;;;3.97;;
12418;SDS011;6273;52.312;9.178;2022-07-24T12:31:07;4.93;;;4.63;;
12418;SDS011;6273;52.312;9.178;2022-07-24T12:33:36;4.37;;;4.07;;
12418;SDS011;6273;52.312;9.178;2022-07-24T12:36:10;5.23;;;4.87;;
12418;SDS011;6273;52.312;9.178;2022-07-24T12:41:04;4.23;;;3.87;;
12418;SDS011;6273;52.312;9.178;2022-07-24T12:43:30;4.30;;;3.90;;
12418;SDS011;6273;52.312;9.178;2022-07-24T12:46:08;5.00;;;4.57;;
12418;SDS011;6273;52.312;9.178;2022-07-24T12:48:35;4.60;;;4.10;;
12418;SDS011;6273;52.312;9.178;2022-07-24T12:51:10;4.27;;;3.97;;
12418;SDS011;6273;52.312;9.178;2022-07-24T12:53:38;4.57;;;4.27;;
12418;SDS011;6273;52.312;9.178;2022-07-24T12:56:07;5.10;;;4.60;;
12418;SDS011;6273;52.312;9.178;2022-07-24T12:58:52;4.60;;;4.30;;
12418;SDS011;6273;52.312;9.178;2022-07-24T13:01:19;4.63;;;4.17;;
12418;SDS011;6273;52.312;9.178;2022-07-24T13:04:03;4.80;;;4.50;;
12418;SDS011;6273;52.312;9.178;2022-07-24T13:06:33;6.50;;;4.53;;
12418;SDS011;6273;52.312;9.178;2022-07-24T13:09:00;4.70;;;4.40;;
12418;SDS011;6273;52.312;9.178;2022-07-24T13:11:26;4.30;;;3.90;;
12418;SDS011;6273;52.312;9.178;2022-07-24T13:13:51;4.40;;;4.20;;
12418;SDS011;6273;52.312;9.178;2022-07-24T13:16:17;4.60;;;4.20;;
12418;SDS011;6273;52.312;9.178;2022-07-24T13:18:44;5.03;;;4.60;;
12418;SDS011;6273;52.312;9.178;2022-07-24T13:21:09;5.07;;;4.70;;
12418;SDS011;6273;52.312;9.178;2022-07-24T13:23:35;7.17;;;4.03;;
12418;SDS011;6273;52.312;9.178;2022-07-24T13:26:01;4.60;;;3.87;;
12418;SDS011;6273;52.312;9.178;2022-07-24T13:28:26;5.20;;;4.70;;
12418;SDS011;6273;52.312;9.178;2022-07-24T13:30:52;4.10;;;3.83;;
12418;SDS011;6273;52.312;9.178;2022-07-24T13:33:18;4.53;;;4.20;;
12418;SDS011;6273;52.312;9.178;2022-07-24T13:35:44;4.23;;;4.03;;
12418;SDS011;6273;52.312;9.178;2022-07-24T13:38:09;5.20;;;4.83;;
12418;SDS011;6273;52.312;9.178;2022-07-24T13:40:35;5.13;;;4.47;;
12418;SDS011;6273;52.312;9.178;2022-07-24T13:43:01;5.00;;;4.60;;
12418;SDS011;6273;52.312;9.178;2022-07-24T13:45:27;4.27;;;4.07;;
12418;SDS011;6273;52.312;9.178;2022-07-24T13:47:52;4.40;;;4.07;;
12418;SDS011;6273;52.312;9.178;2022-07-24T13:50:18;5.73;;;4.57;;
12418;SDS011;6273;52.312;9.178;2022-07-24T13:52:44;3.67;;;3.47;;
12418;SDS011;6273;52.312;9.178;2022-07-24T13:55:09;5.40;;;4.70;;
12418;SDS011;6273;52.312;9.178;2022-07-24T13:57:35;6.53;;;4.40;;
12418;SDS011;6273;52.312;9.178;2022-07-24T14:00:00;4.07;;;3.60;;
12418;SDS011;6273;52.312;9.178;2022-07-24T14:02:26;4.73;;;4.33;;
12418;SDS011;6273;52.312;9.178;2022-07-24T14:04:52;4.37;;;4.07;;
12418;SDS011;6273;52.312;9.178;2022-07-24T14:07:17;4.40;;;4.10;;
12418;SDS011;6273;52.312;9.178;2022-07-24T14:09:43;4.53;;;4.23;;
12418;SDS011;6273;52.312;9.178;2022-07-24T14:12:09;5.00;;;4.70;;
12418;SDS011;6273;52.312;9.178;2022-07-24T14:14:35;6.20;;;4.30;;
12418;SDS011;6273;52.312;9.178;2022-07-24T14:17:00;4.30;;;3.90;;
12418;SDS011;6273;52.312;9.178;2022-07-24T14:19:26;4.60;;;4.20;;
12418;SDS011;6273;52.312;9.178;2022-07-24T14:21:52;5.97;;;4.70;;
12418;SDS011;6273;52.312;9.178;2022-07-24T14:24:18;5.30;;;4.03;;
12418;SDS011;6273;52.312;9.178;2022-07-24T14:26:44;5.00;;;4.60;;
12418;SDS011;6273;52.312;9.178;2022-07-24T14:29:11;5.23;;;4.73;;
12418;SDS011;6273;52.312;9.178;2022-07-24T14:31:37;4.83;;;4.43;;
12418;SDS011;6273;52.312;9.178;2022-07-24T14:34:03;4.40;;;4.10;;
12418;SDS011;6273;52.312;9.178;2022-07-24T14:36:28;4.70;;;4.40;;
12418;SDS011;6273;52.312;9.178;2022-07-24T14:38:54;5.80;;;5.23;;
12418;SDS011;6273;52.312;9.178;2022-07-24T14:41:20;4.97;;;4.57;;
12418;SDS011;6273;52.312;9.178;2022-07-24T14:43:45;5.00;;;4.60;;
12418;SDS011;6273;52.312;9.178;2022-07-24T14:46:12;4.97;;;4.00;;
12418;SDS011;6273;52.312;9.178;2022-07-24T14:48:39;4.60;;;4.30;;
12418;SDS011;6273;52.312;9.178;2022-07-24T14:51:05;4.87;;;4.20;;
12418;SDS011;6273;52.312;9.178;2022-07-24T14:53:31;4.90;;;4.50;;
12418;SDS011;6273;52.312;9.178;2022-07-24T14:55:56;5.53;;;5.03;;
12418;SDS011;6273;52.312;9.178;2022-07-24T14:58:22;5.17;;;4.77;;
12418;SDS011;6273;52.312;9.178;2022-07-24T15:00:47;4.40;;;4.00;;
12418;SDS011;6273;52.312;9.178;2022-07-24T15:03:14;4.30;;;4.10;;
12418;SDS011;6273;52.312;9.178;2022-07-24T15:05:39;4.40;;;4.20;;
12418;SDS011;6273;52.312;9.178;2022-07-24T15:08:05;4.70;;;4.40;;
12418;SDS011;6273;52.312;9.178;2022-07-24T15:10:31;5.17;;;4.77;;
12418;SDS011;6273;52.312;9.178;2022-07-24T15:12:56;4.77;;;4.37;;
12418;SDS011;6273;52.312;9.178;2022-07-24T15:15:22;5.70;;;5.40;;
12418;SDS011;6273;52.312;9.178;2022-07-24T15:17:47;4.50;;;4.20;;
12418;SDS011;6273;52.312;9.178;2022-07-24T15:20:13;5.33;;;4.87;;
12418;SDS011;6273;52.312;9.178;2022-07-24T15:22:39;4.20;;;3.90;;
12418;SDS011;6273;52.312;9.178;2022-07-24T15:25:04;6.13;;;3.80;;
12418;SDS011;6273;52.312;9.178;2022-07-24T15:27:30;4.47;;;4.20;;
12418;SDS011;6273;52.312;9.178;2022-07-24T15:29:56;4.40;;;4.20;;